メインページ
METAR-TAF:

METAR-TAF

空港 :

ジンナー国際空港

カラチ, パキスタン

緯度: 24-54N, 経度: 067-08E, 海抜: 21m

現時点の気象観測

当レポートは23分前の10:55(UTC)に作成
東/北東の風 9kt
気温 33°C
湿度 17%
気圧 1010 hPa
視程: 3000m
煙霧

METAR: OPKC 141055Z 06009KT 3000 HZ NSC 33/05 Q1010 BECMG 4000

時間: 16:18 (11:18 UTC)

予報

当レポートは4時間48分前の06:30(UTC)に作成
予報は14日の 09時(UTC)から 14日の 18時(UTC)まで有効
西の風 8kt
視程: 4000m
14日の 09時(UTC)から 14日の 11時(UTC)まで徐々に
東/北東の風 6kt
視程: 2000m

TAF: OPKC 140630Z 1409/1418 27008KT 4000 FU NSC BECMG 1409/1411 06006KT 2000 FU NSC

4,000以上の空港の気象観測と天気予報(METAR報とTAF報)

利用可能な観測所は地図上に黄色い丸と赤い丸で示す。

丸の上にカーソルを重ねると観測所名を参照できる。

次にクリックすると気象観測と天気予報を参照できる。

マップの切り替え:黒色「×」印の緑ボタンをクリックして拡大、「-」印の緑ボタンをクリックして縮小、緑色の三角印をクリックして隣りの地図に切り替え


METAR-TAF: